createdAt,value
2018-09-11T00:01:45.799Z,3.33
2018-09-11T00:04:13.887Z,3.10
2018-09-11T00:06:41.982Z,3.20
2018-09-11T00:09:11.965Z,3.30
2018-09-11T00:11:40.366Z,2.90
2018-09-11T00:14:08.534Z,2.73
2018-09-11T00:16:37.566Z,3.30
2018-09-11T00:19:05.653Z,2.97
2018-09-11T00:21:33.764Z,3.47
2018-09-11T00:24:01.851Z,3.50
2018-09-11T00:26:29.955Z,3.37
2018-09-11T00:28:58.025Z,3.20
2018-09-11T00:31:26.174Z,3.23
2018-09-11T00:33:54.271Z,3.40
2018-09-11T00:36:22.356Z,3.20
2018-09-11T00:38:50.561Z,3.30
2018-09-11T00:41:18.677Z,3.10
2018-09-11T00:43:46.733Z,3.17
2018-09-11T00:46:14.822Z,3.10
2018-09-11T00:48:42.872Z,3.53
2018-09-11T00:51:10.939Z,3.23
2018-09-11T00:53:38.983Z,3.40
2018-09-11T00:56:07.126Z,3.60
2018-09-11T00:58:35.179Z,3.30
2018-09-11T01:01:03.248Z,3.10
2018-09-11T01:03:31.399Z,3.53
2018-09-11T01:05:59.509Z,3.43
2018-09-11T01:08:27.544Z,3.30
2018-09-11T01:10:55.599Z,3.27
2018-09-11T01:13:23.650Z,3.33
2018-09-11T01:15:51.818Z,3.77
2018-09-11T01:18:19.871Z,3.53
2018-09-11T01:20:47.953Z,2.97
2018-09-11T01:23:16.043Z,2.97
2018-09-11T01:25:44.178Z,3.07
2018-09-11T01:28:12.250Z,3.10
2018-09-11T01:30:40.334Z,3.20
2018-09-11T01:33:08.394Z,3.20
2018-09-11T01:35:36.437Z,3.17
2018-09-11T01:38:04.900Z,3.03
2018-09-11T01:40:32.985Z,3.37
2018-09-11T01:43:01.052Z,3.03
2018-09-11T01:45:29.131Z,2.90
2018-09-11T01:47:57.219Z,3.23
2018-09-11T01:50:25.276Z,2.90
2018-09-11T01:52:53.400Z,2.97
2018-09-11T01:55:21.504Z,3.27
2018-09-11T01:57:49.598Z,3.30
2018-09-11T02:00:18.289Z,3.27
2018-09-11T02:02:46.924Z,3.30
2018-09-11T02:05:15.036Z,2.73
2018-09-11T02:07:43.878Z,3.30
2018-09-11T02:10:12.385Z,2.77
2018-09-11T02:12:40.473Z,3.00
2018-09-11T02:15:09.216Z,3.17
2018-09-11T02:17:37.531Z,3.10
2018-09-11T02:20:05.927Z,3.40
2018-09-11T02:22:34.068Z,3.00
2018-09-11T02:25:02.172Z,3.10
2018-09-11T02:30:04.752Z,3.00
2018-09-11T02:32:32.808Z,3.20
2018-09-11T02:35:00.954Z,2.50
2018-09-11T02:37:29.065Z,2.90
2018-09-11T02:39:57.118Z,3.00
2018-09-11T02:42:25.195Z,3.13
2018-09-11T02:44:53.259Z,2.80
2018-09-11T02:47:21.399Z,3.60
2018-09-11T02:49:49.493Z,3.20
2018-09-11T02:52:17.578Z,3.40
2018-09-11T02:54:45.624Z,2.97
2018-09-11T02:57:13.673Z,2.80
2018-09-11T02:59:41.735Z,3.17
2018-09-11T03:02:10.009Z,3.03
2018-09-11T03:04:38.107Z,2.90
2018-09-11T03:07:06.194Z,3.33
2018-09-11T03:09:34.408Z,3.20
2018-09-11T03:12:02.491Z,3.03
2018-09-11T03:14:30.570Z,2.90
2018-09-11T03:16:58.626Z,3.30
2018-09-11T03:19:26.703Z,2.80
2018-09-11T03:21:54.860Z,3.10
2018-09-11T03:24:23.143Z,3.10
2018-09-11T03:26:51.337Z,3.03
2018-09-11T03:29:19.454Z,3.07
2018-09-11T03:31:47.508Z,3.00
2018-09-11T03:34:15.579Z,3.47
2018-09-11T03:36:43.636Z,3.37
2018-09-11T03:39:11.980Z,3.00
2018-09-11T03:41:40.067Z,3.17
2018-09-11T03:44:08.188Z,3.33
2018-09-11T03:46:36.207Z,3.20
2018-09-11T03:49:04.428Z,3.20
2018-09-11T03:51:32.475Z,3.20
2018-09-11T03:54:00.550Z,3.27
2018-09-11T03:56:28.633Z,2.90
2018-09-11T03:58:56.707Z,2.90
2018-09-11T04:01:24.762Z,2.90
2018-09-11T04:03:52.845Z,3.37
2018-09-11T04:06:21.017Z,3.07
2018-09-11T04:08:49.079Z,3.50
2018-09-11T04:11:17.212Z,3.30
2018-09-11T04:13:45.381Z,2.97
2018-09-11T04:16:13.456Z,3.40
2018-09-11T04:18:41.536Z,3.30
2018-09-11T04:21:09.603Z,3.13
2018-09-11T04:23:37.724Z,3.53
2018-09-11T04:26:06.436Z,3.10
2018-09-11T04:28:34.515Z,3.53
2018-09-11T04:31:02.594Z,3.20
2018-09-11T04:33:30.673Z,3.00
2018-09-11T04:35:58.740Z,3.33
2018-09-11T04:38:27.018Z,3.33
2018-09-11T04:40:55.159Z,3.20
2018-09-11T04:43:23.214Z,3.10
2018-09-11T04:45:51.308Z,3.30
2018-09-11T04:48:19.403Z,3.17
2018-09-11T04:50:47.460Z,3.17
2018-09-11T04:53:15.531Z,3.43
2018-09-11T04:55:43.697Z,3.47
2018-09-11T04:58:11.810Z,3.00
2018-09-11T05:00:39.885Z,3.30
2018-09-11T05:03:08.065Z,3.40
2018-09-11T05:05:36.156Z,3.10
2018-09-11T05:08:04.234Z,3.40
2018-09-11T05:10:32.541Z,4.10
2018-09-11T05:13:00.599Z,3.43
2018-09-11T05:15:28.705Z,3.57
2018-09-11T05:17:56.774Z,3.80
2018-09-11T05:20:24.847Z,3.57
2018-09-11T05:22:52.922Z,3.73
2018-09-11T05:25:21.065Z,4.30
2018-09-11T05:27:49.289Z,3.53
2018-09-11T05:30:17.923Z,3.57
2018-09-11T05:32:46.129Z,3.50
2018-09-11T05:35:14.240Z,3.50
2018-09-11T05:42:53.287Z,3.90
2018-09-11T05:45:21.387Z,4.33
2018-09-11T05:47:49.482Z,3.70
2018-09-11T05:50:17.582Z,3.80
2018-09-11T05:52:45.672Z,3.90
2018-09-11T05:55:13.757Z,4.20
2018-09-11T05:57:42.015Z,3.83
2018-09-11T06:00:10.176Z,3.93
2018-09-11T06:02:38.280Z,4.00
2018-09-11T06:05:06.602Z,3.83
2018-09-11T06:07:34.709Z,3.90
2018-09-11T06:10:02.888Z,3.53
2018-09-11T06:12:31.018Z,3.90
2018-09-11T06:14:59.254Z,4.27
2018-09-11T06:17:27.325Z,3.77
2018-09-11T06:19:55.483Z,3.70
2018-09-11T06:22:23.612Z,4.20
2018-09-11T06:24:51.696Z,3.90
2018-09-11T06:27:19.803Z,4.30
2018-09-11T06:29:47.889Z,5.87
2018-09-11T06:32:16.016Z,4.20
2018-09-11T06:34:44.142Z,4.77
2018-09-11T06:37:12.241Z,3.90
2018-09-11T06:39:40.322Z,3.77
2018-09-11T06:42:08.567Z,3.77
2018-09-11T06:44:36.718Z,4.10
2018-09-11T06:47:04.787Z,3.83
2018-09-11T06:49:32.873Z,4.10
2018-09-11T06:52:00.965Z,3.73
2018-09-11T06:54:29.039Z,3.90
2018-09-11T06:56:57.138Z,3.87
2018-09-11T06:59:25.206Z,3.70
2018-09-11T07:01:53.347Z,3.70
2018-09-11T07:04:21.513Z,3.87
2018-09-11T07:06:49.832Z,3.87
2018-09-11T07:09:17.900Z,3.40
2018-09-11T07:11:46.203Z,4.10
2018-09-11T07:14:14.260Z,3.90
2018-09-11T07:16:42.406Z,5.13
2018-09-11T07:19:10.512Z,4.10
2018-09-11T07:21:38.583Z,4.20
2018-09-11T07:24:06.924Z,4.13
2018-09-11T07:26:35.018Z,3.90
2018-09-11T07:29:03.079Z,4.03
2018-09-11T07:31:31.169Z,4.80
2018-09-11T07:33:59.251Z,4.67
2018-09-11T07:36:27.373Z,4.20
2018-09-11T07:38:55.435Z,4.33
2018-09-11T07:41:23.486Z,4.07
2018-09-11T07:43:51.592Z,3.73
2018-09-11T07:46:19.728Z,4.87
2018-09-11T07:48:47.872Z,5.30
2018-09-11T07:51:15.970Z,4.33
2018-09-11T07:53:44.110Z,4.57
2018-09-11T07:56:12.192Z,4.17
2018-09-11T07:58:40.259Z,4.23
2018-09-11T08:01:08.361Z,4.50
2018-09-11T08:03:36.444Z,4.47
2018-09-11T08:06:04.552Z,5.70
2018-09-11T08:08:32.748Z,4.40
2018-09-11T08:11:00.867Z,4.27
2018-09-11T08:13:28.952Z,4.50
2018-09-11T08:15:57.053Z,3.93
2018-09-11T08:18:25.391Z,3.73
2018-09-11T08:20:53.546Z,4.43
2018-09-11T08:23:21.659Z,4.73
2018-09-11T08:25:49.793Z,4.30
2018-09-11T08:28:17.883Z,4.87
2018-09-11T08:30:45.972Z,4.30
2018-09-11T08:33:14.032Z,4.37
2018-09-11T08:35:42.116Z,4.80
2018-09-11T08:38:10.185Z,4.57
2018-09-11T08:40:38.269Z,4.60
2018-09-11T08:43:06.385Z,4.50
2018-09-11T08:45:34.451Z,4.60
2018-09-11T08:48:02.658Z,4.33
2018-09-11T08:50:30.733Z,6.30
2018-09-11T08:52:58.823Z,4.60
2018-09-11T08:55:26.864Z,5.13
2018-09-11T08:57:54.942Z,4.40
2018-09-11T09:00:23.021Z,4.37
2018-09-11T09:02:51.172Z,4.43
2018-09-11T09:05:19.335Z,3.90
2018-09-11T09:07:47.510Z,3.40
2018-09-11T09:10:15.604Z,3.77
2018-09-11T09:12:43.756Z,4.07
2018-09-11T09:15:11.849Z,4.00
2018-09-11T09:17:40.020Z,4.10
2018-09-11T09:20:08.076Z,3.90
2018-09-11T09:22:36.163Z,4.07
2018-09-11T09:25:04.779Z,3.97
2018-09-11T09:27:32.865Z,3.83
2018-09-11T09:30:00.943Z,3.97
2018-09-11T09:32:29.091Z,3.70
2018-09-11T09:34:57.165Z,3.43
2018-09-11T09:37:25.292Z,3.97
2018-09-11T09:39:53.362Z,4.23
2018-09-11T09:42:21.463Z,4.97
2018-09-11T09:44:49.512Z,3.80
2018-09-11T09:47:17.602Z,3.43
2018-09-11T09:49:45.664Z,3.80
2018-09-11T09:52:13.767Z,3.80
2018-09-11T09:54:41.892Z,3.27
2018-09-11T09:57:10.058Z,4.73
2018-09-11T09:59:38.227Z,4.10
2018-09-11T10:02:25.337Z,3.63
2018-09-11T10:04:54.260Z,3.50
2018-09-11T10:07:23.203Z,3.30
2018-09-11T10:09:51.889Z,3.77
2018-09-11T10:12:20.080Z,3.20
2018-09-11T10:14:48.225Z,3.50
2018-09-11T10:17:16.312Z,3.23
2018-09-11T10:19:44.398Z,3.07
2018-09-11T10:22:12.522Z,3.40
2018-09-11T10:24:40.613Z,3.20
2018-09-11T10:27:09.336Z,3.30
2018-09-11T10:29:37.437Z,3.00
2018-09-11T10:32:05.605Z,3.30
2018-09-11T10:34:33.669Z,3.03
2018-09-11T10:37:01.775Z,3.90
2018-09-11T10:39:29.940Z,3.13
2018-09-11T10:41:58.002Z,3.80
2018-09-11T10:44:26.060Z,3.50
2018-09-11T10:46:54.121Z,3.53
2018-09-11T10:49:22.184Z,3.60
2018-09-11T10:51:50.310Z,3.43
2018-09-11T10:54:18.306Z,3.43
2018-09-11T10:56:46.389Z,3.40
2018-09-11T10:59:14.478Z,3.23
2018-09-11T11:01:42.594Z,3.47
2018-09-11T11:04:10.660Z,3.47
2018-09-11T11:06:38.710Z,3.27
2018-09-11T11:09:08.400Z,3.30
2018-09-11T11:11:36.617Z,3.30
2018-09-11T11:14:04.672Z,2.90
2018-09-11T11:16:32.718Z,2.70
2018-09-11T11:19:00.783Z,3.33
2018-09-11T11:21:28.862Z,3.40
2018-09-11T11:23:56.972Z,3.30
2018-09-11T11:26:25.057Z,3.10
2018-09-11T11:28:53.127Z,2.90
2018-09-11T11:31:21.216Z,3.20
2018-09-11T11:33:49.359Z,3.27
2018-09-11T11:36:17.556Z,3.47
2018-09-11T11:38:45.530Z,3.47
2018-09-11T11:41:13.610Z,3.23
2018-09-11T11:43:41.706Z,3.07
2018-09-11T11:46:09.772Z,3.20
2018-09-11T11:48:37.871Z,3.17
2018-09-11T11:51:06.120Z,3.40
2018-09-11T11:53:34.284Z,3.27
2018-09-11T11:56:02.338Z,3.30
2018-09-11T11:58:30.422Z,2.90
2018-09-11T12:00:58.508Z,3.30
2018-09-11T12:03:26.673Z,2.83
2018-09-11T12:05:54.736Z,3.30
2018-09-11T12:08:22.945Z,3.30
2018-09-11T12:10:51.014Z,3.20
2018-09-11T12:13:19.210Z,3.00
2018-09-11T12:15:47.243Z,3.70
2018-09-11T12:18:15.352Z,3.17
2018-09-11T12:20:43.461Z,3.23
2018-09-11T12:23:11.644Z,3.20
2018-09-11T12:25:39.768Z,3.40
2018-09-11T12:28:07.789Z,3.50
2018-09-11T12:30:35.848Z,3.30
2018-09-11T12:33:03.916Z,3.13
2018-09-11T12:35:32.004Z,3.00
2018-09-11T12:38:00.102Z,3.17
2018-09-11T12:40:28.227Z,2.87
2018-09-11T12:42:56.314Z,4.17
2018-09-11T12:45:24.361Z,2.93
2018-09-11T12:47:52.934Z,3.40
2018-09-11T12:50:20.523Z,3.20
2018-09-11T12:52:48.607Z,3.00
2018-09-11T12:55:16.737Z,2.90
2018-09-11T12:57:44.824Z,3.10
2018-09-11T13:00:13.089Z,2.73
2018-09-11T13:02:41.198Z,3.47
2018-09-11T13:05:09.292Z,3.00
2018-09-11T13:07:37.451Z,2.97
2018-09-11T13:10:05.563Z,2.77
2018-09-11T13:12:33.644Z,3.10
2018-09-11T13:15:01.807Z,2.80
2018-09-11T13:17:29.851Z,2.70
2018-09-11T13:19:57.893Z,2.90
2018-09-11T13:22:25.979Z,2.97
2018-09-11T13:24:54.058Z,2.80
2018-09-11T13:27:22.142Z,3.13
2018-09-11T13:29:50.224Z,2.93
2018-09-11T13:32:18.322Z,3.17
2018-09-11T13:34:46.451Z,2.63
2018-09-11T13:37:14.622Z,2.70
2018-09-11T13:39:42.727Z,2.70
2018-09-11T13:42:10.882Z,2.70
2018-09-11T13:44:39.149Z,2.53
2018-09-11T13:47:07.363Z,2.77
2018-09-11T13:49:35.730Z,2.97
2018-09-11T13:52:03.813Z,2.70
2018-09-11T13:54:32.020Z,2.80
2018-09-11T13:57:00.219Z,2.70
2018-09-11T13:59:28.367Z,2.70
2018-09-11T14:01:56.425Z,2.43
2018-09-11T14:04:24.523Z,2.90
2018-09-11T14:06:52.723Z,2.70
2018-09-11T14:09:20.831Z,2.03
2018-09-11T14:11:48.900Z,2.20
2018-09-11T14:14:16.979Z,2.27
2018-09-11T14:16:45.028Z,2.60
2018-09-11T14:19:13.151Z,2.90
2018-09-11T14:21:41.205Z,2.63
2018-09-11T14:24:09.341Z,2.40
2018-09-11T14:26:37.402Z,2.47
2018-09-11T14:29:05.449Z,2.30
2018-09-11T14:31:33.532Z,2.37
2018-09-11T14:34:01.630Z,2.50
2018-09-11T14:36:29.719Z,2.60
2018-09-11T14:38:57.839Z,2.40
2018-09-11T14:41:25.914Z,2.40
2018-09-11T14:43:53.987Z,2.33
2018-09-11T14:46:22.089Z,2.30
2018-09-11T14:48:50.164Z,2.40
2018-09-11T14:51:18.344Z,2.40
2018-09-11T14:53:46.483Z,2.37
2018-09-11T14:56:14.568Z,2.00
2018-09-11T14:58:42.640Z,2.20
2018-09-11T15:01:10.724Z,2.30
2018-09-11T15:03:38.861Z,1.83
2018-09-11T15:06:06.948Z,2.10
2018-09-11T15:08:35.065Z,2.23
2018-09-11T15:11:03.178Z,2.37
2018-09-11T15:13:31.296Z,2.33
2018-09-11T15:15:59.368Z,2.13
2018-09-11T15:18:27.500Z,2.27
2018-09-11T15:20:55.561Z,2.03
2018-09-11T15:23:23.643Z,2.30
2018-09-11T15:25:51.781Z,2.63
2018-09-11T15:28:19.877Z,2.13
2018-09-11T15:30:47.998Z,2.00
2018-09-11T15:33:16.068Z,1.77
2018-09-11T15:35:44.174Z,1.90
2018-09-11T15:38:12.272Z,2.53
2018-09-11T15:40:40.344Z,2.50
2018-09-11T15:43:08.419Z,3.40
2018-09-11T15:45:36.525Z,2.83
2018-09-11T15:48:04.620Z,3.67
2018-09-11T15:50:32.712Z,2.47
2018-09-11T15:53:00.970Z,2.80
2018-09-11T15:55:29.056Z,2.20
2018-09-11T15:57:57.124Z,2.30
2018-09-11T16:00:25.234Z,2.33
2018-09-11T16:02:53.326Z,2.97
2018-09-11T16:05:21.396Z,2.67
2018-09-11T16:07:49.487Z,3.03
2018-09-11T16:10:17.605Z,2.40
2018-09-11T16:12:45.699Z,4.60
2018-09-11T16:15:13.786Z,2.77
2018-09-11T16:17:41.900Z,2.20
2018-09-11T16:20:10.021Z,2.50
2018-09-11T16:22:38.110Z,2.73
2018-09-11T16:25:06.307Z,2.53
2018-09-11T16:27:34.427Z,2.93
2018-09-11T16:30:02.544Z,2.50
2018-09-11T16:32:30.611Z,2.60
2018-09-11T16:34:58.697Z,2.87
2018-09-11T16:37:26.825Z,2.30
2018-09-11T16:39:54.958Z,2.40
2018-09-11T16:42:22.987Z,2.60
2018-09-11T16:44:51.127Z,2.70
2018-09-11T16:47:19.378Z,2.47
2018-09-11T16:49:47.474Z,2.70
2018-09-11T16:52:15.571Z,2.47
2018-09-11T16:54:43.832Z,2.77
2018-09-11T16:57:11.935Z,2.60
2018-09-11T16:59:40.010Z,2.63
2018-09-11T17:02:08.169Z,3.77
2018-09-11T17:04:36.675Z,3.30
2018-09-11T17:07:04.779Z,3.67
2018-09-11T17:09:32.925Z,3.53
2018-09-11T17:12:01.022Z,3.80
2018-09-11T17:14:29.119Z,3.77
2018-09-11T17:16:57.209Z,3.30
2018-09-11T17:19:25.275Z,3.30
2018-09-11T17:21:53.379Z,3.00
2018-09-11T17:24:21.557Z,3.10
2018-09-11T17:26:49.654Z,2.67
2018-09-11T17:29:17.756Z,3.40
2018-09-11T17:31:45.877Z,3.20
2018-09-11T17:34:14.034Z,3.27
2018-09-11T17:36:42.178Z,3.67
2018-09-11T17:39:11.452Z,4.23
2018-09-11T17:41:40.232Z,3.17
2018-09-11T17:44:08.487Z,3.60
2018-09-11T17:46:36.767Z,3.10
2018-09-11T17:49:05.135Z,2.90
2018-09-11T17:51:33.252Z,3.00
2018-09-11T17:54:01.513Z,3.23
2018-09-11T17:56:30.125Z,3.13
2018-09-11T17:58:58.204Z,2.93
2018-09-11T18:01:26.377Z,3.30
2018-09-11T18:03:54.580Z,3.30
2018-09-11T18:06:22.647Z,3.30
2018-09-11T18:08:50.779Z,3.57
2018-09-11T18:11:18.893Z,2.90
2018-09-11T18:13:47.076Z,3.30
2018-09-11T18:16:15.184Z,3.87
2018-09-11T18:18:43.359Z,3.47
2018-09-11T18:21:11.473Z,3.73
2018-09-11T18:23:39.605Z,6.80
2018-09-11T18:26:07.730Z,3.97
2018-09-11T18:28:35.852Z,5.50
2018-09-11T18:31:03.922Z,4.27
2018-09-11T18:33:32.041Z,4.13
2018-09-11T18:36:00.116Z,4.10
2018-09-11T18:38:28.212Z,4.23
2018-09-11T18:40:56.294Z,4.10
2018-09-11T18:43:24.472Z,3.80
2018-09-11T18:45:52.729Z,4.07
2018-09-11T18:48:20.837Z,3.80
2018-09-11T18:50:48.950Z,4.07
2018-09-11T18:53:17.283Z,4.47
2018-09-11T18:55:45.407Z,3.73
2018-09-11T18:58:13.522Z,4.07
2018-09-11T19:00:41.664Z,4.43
2018-09-11T19:03:09.767Z,4.00
2018-09-11T19:05:37.886Z,4.27
2018-09-11T19:08:06.016Z,4.07
2018-09-11T19:10:34.132Z,3.87
2018-09-11T19:13:03.116Z,4.83
2018-09-11T19:15:31.215Z,4.50
2018-09-11T19:17:59.295Z,4.30
2018-09-11T19:20:27.441Z,3.90
2018-09-11T19:22:55.464Z,3.97
2018-09-11T19:25:23.583Z,3.77
2018-09-11T19:27:51.676Z,3.93
2018-09-11T19:30:19.757Z,4.40
2018-09-11T19:32:47.839Z,3.50
2018-09-11T19:35:15.934Z,4.10
2018-09-11T19:37:44.031Z,3.53
2018-09-11T19:40:12.151Z,3.90
2018-09-11T19:42:40.270Z,3.50
2018-09-11T19:45:08.352Z,3.90
2018-09-11T19:47:36.473Z,3.93
2018-09-11T19:50:04.572Z,3.97
2018-09-11T19:52:32.655Z,3.83
2018-09-11T19:55:00.726Z,3.63
2018-09-11T19:57:28.827Z,4.30
2018-09-11T19:59:56.975Z,3.80
2018-09-11T20:02:25.092Z,3.63
2018-09-11T20:04:53.207Z,4.00
2018-09-11T20:07:21.266Z,3.77
2018-09-11T20:09:49.385Z,3.60
2018-09-11T20:12:17.453Z,4.00
2018-09-11T20:14:45.552Z,3.87
2018-09-11T20:17:13.657Z,4.10
2018-09-11T20:19:41.735Z,4.00
2018-09-11T20:22:11.192Z,4.07
2018-09-11T20:24:39.296Z,3.67
2018-09-11T20:27:07.880Z,3.53
2018-09-11T20:29:35.972Z,4.00
2018-09-11T20:32:04.119Z,3.67
2018-09-11T20:34:32.233Z,4.33
2018-09-11T20:37:00.281Z,4.17
2018-09-11T20:39:28.361Z,3.90
2018-09-11T20:41:56.403Z,3.93
2018-09-11T20:44:24.504Z,4.00
2018-09-11T20:46:52.595Z,4.00
2018-09-11T20:49:20.699Z,3.73
2018-09-11T20:51:48.806Z,4.60
2018-09-11T20:54:16.896Z,4.40
2018-09-11T20:56:44.996Z,4.60
2018-09-11T20:59:13.072Z,4.43
2018-09-11T21:01:41.144Z,3.93
2018-09-11T21:04:09.259Z,3.77
2018-09-11T21:06:37.310Z,3.60
2018-09-11T21:09:06.692Z,3.97
2018-09-11T21:11:35.019Z,3.77
2018-09-11T21:14:03.124Z,3.70
2018-09-11T21:16:31.207Z,3.60
2018-09-11T21:18:59.306Z,3.53
2018-09-11T21:21:27.413Z,3.80
2018-09-11T21:23:55.523Z,3.77
2018-09-11T21:26:23.597Z,3.80
2018-09-11T21:28:51.729Z,3.50
2018-09-11T21:31:19.767Z,4.20
2018-09-11T21:33:47.878Z,4.00
2018-09-11T21:36:15.963Z,3.57
2018-09-11T21:38:44.027Z,3.67
2018-09-11T21:41:12.183Z,4.10
2018-09-11T21:43:40.266Z,4.03
2018-09-11T21:46:08.379Z,3.47
2018-09-11T21:48:36.509Z,4.03
2018-09-11T21:51:04.655Z,3.63
2018-09-11T21:53:32.740Z,4.20
2018-09-11T21:56:00.843Z,3.97
2018-09-11T21:58:28.994Z,4.30
2018-09-11T22:01:03.168Z,4.10
2018-09-11T22:03:31.248Z,3.60
2018-09-11T22:05:59.425Z,3.57
2018-09-11T22:08:27.510Z,4.03
2018-09-11T22:10:55.610Z,4.17
2018-09-11T22:13:23.821Z,3.07
2018-09-11T22:15:51.877Z,3.13
2018-09-11T22:18:19.943Z,4.00
2018-09-11T22:20:48.047Z,3.30
2018-09-11T22:23:16.316Z,3.80
2018-09-11T22:25:44.410Z,3.60
2018-09-11T22:28:12.558Z,3.73
2018-09-11T22:30:40.644Z,3.23
2018-09-11T22:33:08.815Z,3.30
2018-09-11T22:35:36.972Z,3.90
2018-09-11T22:38:05.205Z,3.10
2018-09-11T22:40:33.331Z,3.30
2018-09-11T22:43:01.454Z,3.17
2018-09-11T22:45:30.528Z,3.00
2018-09-11T22:47:58.681Z,3.07
2018-09-11T22:50:26.776Z,2.77
2018-09-11T22:52:54.926Z,3.00
2018-09-11T22:55:23.079Z,3.07
2018-09-11T22:57:51.187Z,2.80
2018-09-11T23:00:19.298Z,3.07
2018-09-11T23:02:47.350Z,2.87
2018-09-11T23:05:15.472Z,2.73
2018-09-11T23:07:43.631Z,2.80
2018-09-11T23:10:11.719Z,2.60
2018-09-11T23:12:39.761Z,2.63
2018-09-11T23:15:07.875Z,2.40
2018-09-11T23:17:35.976Z,2.80
2018-09-11T23:20:04.135Z,2.80
2018-09-11T23:22:32.202Z,2.67
2018-09-11T23:25:00.275Z,2.90
2018-09-11T23:27:28.343Z,2.77
2018-09-11T23:30:03.404Z,2.87
2018-09-11T23:32:31.490Z,2.90
2018-09-11T23:34:59.538Z,2.90
2018-09-11T23:37:27.680Z,2.80
2018-09-11T23:39:55.796Z,2.73
2018-09-11T23:42:23.857Z,2.93
2018-09-11T23:44:51.945Z,2.57
2018-09-11T23:47:20.137Z,2.60
2018-09-11T23:49:48.317Z,2.70
2018-09-11T23:52:16.444Z,2.70
2018-09-11T23:54:44.500Z,2.97
2018-09-11T23:57:12.602Z,2.63
2018-09-11T23:59:40.651Z,2.97
